Time;durP1;ratioP1;P1;durP2;ratioP2;P2;SDS_P1;SDS_P2;PMS_P1;PMS_P2;Temp;Humidity;BMP_temperature;BMP_pressure;BME280_temperature;BME280_humidity;BME280_pressure;Samples;Min_cycle;Max_cycle;Signal;HPM_P1;HPM_P2
2021/06/24 00:01:03;;;;;;;14.43;7.57;;;;;;;14.69;86.69;101668.56;5047686;28;20041;-86
2021/06/24 00:03:30;;;;;;;14.18;7.80;;;;;;;14.73;86.93;101669.91;5042998;28;20044;-86
2021/06/24 00:05:56;;;;;;;11.88;7.60;;;;;;;14.79;86.53;101685.47;5046405;28;20069;-83
2021/06/24 00:08:22;;;;;;;15.00;7.82;;;;;;;14.76;86.54;101683.06;5048987;28;20037;-84
2021/06/24 00:10:50;;;;;;;12.10;7.65;;;;;;;14.74;86.41;101683.25;5048983;28;20060;-90
2021/06/24 00:13:18;;;;;;;12.90;7.65;;;;;;;14.64;86.85;101678.03;5042742;28;20098;-84
2021/06/24 00:15:43;;;;;;;13.88;8.20;;;;;;;14.73;86.92;101683.41;5044238;28;20141;-85
2021/06/24 00:18:09;;;;;;;14.48;7.88;;;;;;;14.76;86.62;101675.84;5045108;28;20120;-87
2021/06/24 00:20:36;;;;;;;13.05;7.50;;;;;;;14.79;87.00;101680.06;5045169;28;20075;-84
2021/06/24 00:23:03;;;;;;;12.68;8.13;;;;;;;14.80;87.10;101671.78;5043949;28;20052;-92
2021/06/24 00:25:28;;;;;;;18.58;8.32;;;;;;;14.69;87.33;101663.16;5047493;28;20053;-83
2021/06/24 00:27:55;;;;;;;12.50;8.00;;;;;;;14.68;87.19;101672.31;5047532;28;20170;-83
2021/06/24 00:30:21;;;;;;;16.52;8.45;;;;;;;14.68;86.79;101678.53;5048506;28;20098;-83
2021/06/24 00:32:46;;;;;;;11.85;8.38;;;;;;;14.66;87.34;101689.50;5048517;28;20048;-83
2021/06/24 00:35:13;;;;;;;16.67;8.63;;;;;;;14.66;87.37;101681.41;5048908;28;20037;-92
2021/06/24 00:37:40;;;;;;;13.25;8.38;;;;;;;14.66;87.11;101680.56;5045518;28;20041;-84
2021/06/24 00:40:07;;;;;;;12.82;7.70;;;;;;;14.44;88.27;101688.31;5044223;28;20049;-86
2021/06/24 00:42:33;;;;;;;16.15;8.43;;;;;;;14.45;88.24;101691.84;5044515;28;20056;-83
2021/06/24 00:44:59;;;;;;;14.38;8.07;;;;;;;14.52;88.28;101690.19;5045975;28;20047;-84
2021/06/24 00:47:24;;;;;;;12.60;8.02;;;;;;;14.53;88.31;101681.09;5043291;28;20053;-86
2021/06/24 00:49:50;;;;;;;12.57;8.05;;;;;;;14.51;88.09;101680.38;5044595;28;20385;-85
2021/06/24 00:52:16;;;;;;;14.98;8.50;;;;;;;14.53;88.27;101686.47;5045408;28;20464;-84
2021/06/24 00:54:41;;;;;;;12.38;8.55;;;;;;;14.55;88.00;101681.72;5048174;28;20535;-83
2021/06/24 00:57:07;;;;;;;14.68;8.13;;;;;;;14.53;88.02;101693.72;5048454;28;20049;-83
2021/06/24 00:59:37;;;;;;;16.80;8.45;;;;;;;14.53;88.21;101685.63;5044745;28;20120;-85
2021/06/24 01:02:05;;;;;;;16.08;7.90;;;;;;;14.47;88.67;101678.16;5044646;28;20049;-84
2021/06/24 01:04:34;;;;;;;12.55;8.45;;;;;;;14.51;88.13;101677.66;5042967;28;20136;-83
2021/06/24 01:07:00;;;;;;;12.30;7.72;;;;;;;14.50;88.69;101677.81;5046562;28;20106;-85
2021/06/24 01:09:26;;;;;;;12.57;8.15;;;;;;;14.50;88.49;101680.50;5047636;28;20383;-83
2021/06/24 01:11:54;;;;;;;13.70;8.88;;;;;;;14.52;88.42;101675.84;5046403;28;20045;-87
2021/06/24 01:14:19;;;;;;;13.30;8.35;;;;;;;14.44;89.31;101679.34;5044120;28;20238;-84
2021/06/24 01:16:44;;;;;;;14.75;8.65;;;;;;;14.38;89.68;101683.53;5044932;28;20483;-85
2021/06/24 01:19:12;;;;;;;14.90;8.93;;;;;;;14.49;89.21;101682.38;5047285;28;20041;-83
2021/06/24 01:21:37;;;;;;;14.82;8.63;;;;;;;14.56;89.15;101682.59;5045081;28;20044;-83
2021/06/24 01:24:03;;;;;;;13.80;7.93;;;;;;;14.60;88.52;101684.78;5045663;28;20037;-91
2021/06/24 01:26:28;;;;;;;15.82;8.48;;;;;;;14.57;88.54;101682.41;5028267;28;20256;-84
2021/06/24 01:28:54;;;;;;;13.77;8.25;;;;;;;14.54;88.86;101676.53;5047749;28;20051;-83
2021/06/24 01:31:21;;;;;;;13.35;8.48;;;;;;;14.54;89.16;101682.75;5046534;28;20071;-82
2021/06/24 01:33:47;;;;;;;13.05;8.52;;;;;;;14.48;89.26;101680.69;5041065;28;20094;-83
2021/06/24 01:36:13;;;;;;;15.05;9.18;;;;;;;14.39;89.17;101685.25;5044828;28;20127;-90
2021/06/24 01:38:39;;;;;;;12.50;8.15;;;;;;;14.40;89.58;101686.09;5047371;28;20771;-83
2021/06/24 01:41:04;;;;;;;13.00;9.40;;;;;;;14.42;89.55;101676.81;5046802;28;20049;-83
2021/06/24 01:43:30;;;;;;;16.20;9.25;;;;;;;14.48;89.43;101672.59;5044641;28;20496;-83
2021/06/24 01:45:57;;;;;;;13.98;9.13;;;;;;;14.35;90.06;101667.69;5046520;28;20179;-83
2021/06/24 01:48:24;;;;;;;15.88;9.32;;;;;;;14.40;89.57;101672.59;5044469;28;20246;-82
2021/06/24 01:50:52;;;;;;;14.98;8.85;;;;;;;14.37;89.84;101668.38;5042628;28;20049;-84
2021/06/24 01:53:17;;;;;;;17.27;8.95;;;;;;;14.44;89.91;101676.63;5046179;28;20523;-84
2021/06/24 01:55:43;;;;;;;14.18;9.32;;;;;;;14.43;89.76;101675.78;5046680;28;20124;-83
2021/06/24 01:58:13;;;;;;;12.48;8.93;;;;;;;14.47;90.04;101676.28;5046501;28;20041;-82
2021/06/24 02:00:44;;;;;;;15.88;8.40;;;;;;;14.43;89.48;101672.25;5044566;28;20040;-82
2021/06/24 02:03:12;;;;;;;10.88;8.15;;;;;;;14.43;89.69;101672.25;5043606;28;20041;-85
2021/06/24 02:05:37;;;;;;;12.65;8.20;;;;;;;14.38;90.03;101666.50;5039859;28;20064;-83
2021/06/24 02:08:03;;;;;;;11.57;8.13;;;;;;;14.30;90.62;101669.19;5046662;28;20124;-83
2021/06/24 02:10:28;;;;;;;13.98;9.65;;;;;;;14.34;90.32;101665.16;5040702;28;20506;-83
2021/06/24 02:12:54;;;;;;;14.65;8.60;;;;;;;14.37;90.46;101664.84;5045707;28;20103;-85
2021/06/24 02:15:20;;;;;;;13.48;8.18;;;;;;;14.34;90.12;101648.97;5045745;28;20489;-82
2021/06/24 02:17:46;;;;;;;12.05;8.10;;;;;;;14.33;90.26;101652.69;5046388;28;20045;-82
2021/06/24 02:20:14;;;;;;;14.63;8.23;;;;;;;14.32;90.38;101645.59;5045729;28;20071;-82
2021/06/24 02:22:41;;;;;;;15.77;9.10;;;;;;;14.21;91.29;101647.63;5044008;28;20191;-85
2021/06/24 02:25:07;;;;;;;12.57;8.82;;;;;;;14.25;90.80;101649.97;5039432;28;20044;-84
2021/06/24 02:27:32;;;;;;;15.20;8.50;;;;;;;14.23;91.14;101650.97;5045381;28;20048;-83
2021/06/24 02:29:58;;;;;;;14.95;9.18;;;;;;;14.23;91.12;101659.06;5046068;28;20045;-83
2021/06/24 02:32:23;;;;;;;14.68;8.75;;;;;;;14.29;90.88;101651.31;5045721;28;20056;-83
2021/06/24 02:34:51;;;;;;;13.07;8.80;;;;;;;14.39;90.67;101644.75;5044245;28;20040;-89
2021/06/24 02:37:16;;;;;;;15.10;9.07;;;;;;;14.43;90.29;101647.94;5045377;28;20336;-83
2021/06/24 02:39:41;;;;;;;13.57;8.43;;;;;;;14.39;90.56;101649.31;5042540;28;20453;-83
2021/06/24 02:42:07;;;;;;;14.13;9.07;;;;;;;14.32;90.84;101643.72;5037454;28;20126;-85
2021/06/24 02:44:33;;;;;;;15.07;9.27;;;;;;;14.33;90.83;101647.28;5045057;28;20076;-85
2021/06/24 02:46:58;;;;;;;13.90;9.07;;;;;;;14.33;90.93;101647.28;5041286;28;20550;-87
2021/06/24 02:49:23;;;;;;;17.45;9.45;;;;;;;14.29;90.91;101643.22;5044367;28;20064;-84
2021/06/24 02:51:49;;;;;;;14.02;9.18;;;;;;;14.15;91.52;101644.72;5044877;28;20151;-86
2021/06/24 02:54:16;;;;;;;14.90;9.43;;;;;;;14.22;91.31;101645.75;5045190;28;20040;-83
2021/06/24 02:56:42;;;;;;;12.90;9.07;;;;;;;14.16;91.56;101636.47;5038212;28;20516;-84
2021/06/24 02:59:08;;;;;;;17.00;9.43;;;;;;;14.14;91.47;101633.09;5043307;28;20041;-91
2021/06/24 03:01:36;;;;;;;14.43;9.73;;;;;;;14.24;90.97;101632.91;5015285;28;20038;-83
2021/06/24 03:04:03;;;;;;;19.83;9.95;;;;;;;14.10;91.86;101626.34;5025497;28;20369;-83
2021/06/24 03:06:28;;;;;;;15.30;9.30;;;;;;;14.14;91.37;101618.75;5025224;28;20069;-82
2021/06/24 03:08:54;;;;;;;13.02;9.18;;;;;;;14.04;92.39;101613.53;5031216;28;20179;-83
2021/06/24 03:11:19;;;;;;;15.93;10.18;;;;;;;14.05;92.99;101615.19;5019541;28;20169;-86
2021/06/24 03:13:47;;;;;;;13.82;10.02;;;;;;;14.21;91.75;101612.53;5012714;28;20037;-82
2021/06/24 03:16:13;;;;;;;15.15;9.48;;;;;;;14.22;91.15;101610.66;5024666;28;20115;-82
2021/06/24 03:18:38;;;;;;;16.60;9.57;;;;;;;14.21;91.56;101606.25;5025327;28;20041;-83
2021/06/24 03:21:04;;;;;;;16.42;10.35;;;;;;;14.21;91.54;101603.56;5039618;28;20399;-84
2021/06/24 03:23:29;;;;;;;14.00;9.13;;;;;;;14.22;91.23;101603.41;5043398;28;20106;-83
2021/06/24 03:25:55;;;;;;;16.85;9.85;;;;;;;14.24;91.57;101600.53;5043380;28;20268;-83
2021/06/24 03:28:21;;;;;;;14.70;9.77;;;;;;;14.26;91.36;101597.66;5043819;28;20049;-83
2021/06/24 03:30:46;;;;;;;11.95;9.70;;;;;;;14.19;90.68;101606.44;5045382;28;20045;-83
2021/06/24 03:33:12;;;;;;;18.13;10.27;;;;;;;14.14;91.35;101594.47;5043629;28;20041;-85
2021/06/24 03:35:37;;;;;;;17.15;9.68;;;;;;;13.99;92.55;101588.88;5041576;28;20537;-90
2021/06/24 03:38:04;;;;;;;12.32;9.48;;;;;;;14.03;92.48;101592.09;5040685;28;20319;-83
2021/06/24 03:40:30;;;;;;;15.23;10.25;;;;;;;13.98;92.55;101589.88;5042477;28;20056;-83
2021/06/24 03:42:56;;;;;;;15.27;9.98;;;;;;;13.99;92.67;101591.59;5045965;28;20041;-83
2021/06/24 03:45:22;;;;;;;14.13;10.05;;;;;;;14.03;92.29;101589.38;5043877;28;20075;-84
2021/06/24 03:47:47;;;;;;;15.05;9.32;;;;;;;13.97;92.76;101589.03;5042101;28;20472;-91
2021/06/24 03:50:14;;;;;;;13.95;9.98;;;;;;;13.91;93.65;101591.56;5040898;28;20053;-82
2021/06/24 03:52:40;;;;;;;16.88;10.02;;;;;;;13.97;93.16;101588.19;5041732;28;20033;-83
2021/06/24 03:55:06;;;;;;;18.50;10.32;;;;;;;13.89;93.79;101585.50;5042963;28;20079;-83
2021/06/24 03:57:33;;;;;;;15.40;10.10;;;;;;;13.87;94.09;101588.38;5044631;28;20056;-85
2021/06/24 03:59:58;;;;;;;15.77;11.07;;;;;;;13.97;93.30;101590.91;5043822;28;20372;-89
2021/06/24 04:02:24;;;;;;;14.45;9.80;;;;;;;14.05;92.84;101580.13;5040868;28;20079;-84
2021/06/24 04:04:50;;;;;;;15.20;9.95;;;;;;;14.08;92.38;101577.09;5045287;28;20129;-82
2021/06/24 04:07:15;;;;;;;17.55;10.65;;;;;;;14.06;92.57;101583.66;5040197;28;20095;-83
2021/06/24 04:09:41;;;;;;;15.05;10.50;;;;;;;13.99;92.70;101584.31;5041401;28;20049;-85
2021/06/24 04:12:07;;;;;;;13.10;10.00;;;;;;;13.99;92.37;101586.19;5045244;28;20053;-83
2021/06/24 04:14:32;;;;;;;17.08;10.73;;;;;;;14.06;92.40;101584.50;5043153;28;21803;-82
2021/06/24 04:16:57;;;;;;;15.00;10.70;;;;;;;14.03;92.80;101582.13;5042968;28;20045;-83
2021/06/24 04:19:23;;;;;;;14.75;9.63;;;;;;;14.03;92.63;101587.53;5044787;28;20053;-86
2021/06/24 04:21:48;;;;;;;13.30;9.90;;;;;;;14.06;92.67;101581.78;5036777;28;20048;-83
2021/06/24 04:24:14;;;;;;;15.10;9.95;;;;;;;14.03;92.45;101589.38;5039955;28;20098;-84
2021/06/24 04:26:39;;;;;;;17.27;10.55;;;;;;;14.08;92.54;101593.28;5041247;28;20132;-86
2021/06/24 04:29:05;;;;;;;14.05;9.82;;;;;;;14.11;92.19;101590.25;5043846;28;20789;-83
2021/06/24 04:31:30;;;;;;;14.25;10.05;;;;;;;14.08;91.77;101601.38;5049030;28;20407;-86
2021/06/24 04:33:57;;;;;;;14.27;9.73;;;;;;;14.08;91.60;101595.13;5043534;28;20102;-83
2021/06/24 04:36:23;;;;;;;15.10;10.90;;;;;;;14.16;91.89;101595.97;5047673;28;20041;-83
2021/06/24 04:38:48;;;;;;;16.73;10.60;;;;;;;14.19;92.29;101598.34;5047716;28;20059;-85
2021/06/24 04:41:13;;;;;;;14.27;10.68;;;;;;;14.15;92.21;101593.44;5045538;28;20445;-86
2021/06/24 04:43:39;;;;;;;14.63;10.82;;;;;;;14.07;92.56;101599.69;5044240;28;20140;-82
2021/06/24 04:46:04;;;;;;;16.00;10.05;;;;;;;14.08;92.28;101597.84;5044878;28;20041;-84
2021/06/24 04:48:29;;;;;;;19.63;10.80;;;;;;;14.05;93.11;101608.97;5054360;28;20041;-82
2021/06/24 04:50:55;;;;;;;15.80;11.45;;;;;;;14.11;92.48;101601.03;5050807;28;20099;-82
2021/06/24 04:53:20;;;;;;;17.23;11.23;;;;;;;14.08;93.01;101598.66;5045099;28;20041;-83
2021/06/24 04:55:47;;;;;;;16.30;11.18;;;;;;;13.96;93.37;101602.72;5046177;28;20491;-83
2021/06/24 04:58:13;;;;;;;18.75;11.05;;;;;;;13.92;92.96;101602.19;5041561;28;20494;-83
2021/06/24 05:00:38;;;;;;;19.42;10.85;;;;;;;14.06;92.53;101598.00;5048641;28;20041;-84
2021/06/24 05:03:05;;;;;;;14.63;10.75;;;;;;;14.02;92.12;101598.50;5042400;28;20056;-88
2021/06/24 05:05:31;;;;;;;14.82;10.48;;;;;;;13.95;93.22;101601.88;5043276;28;20692;-85
2021/06/24 05:07:58;;;;;;;16.92;11.27;;;;;;;13.92;93.31;101599.47;5045575;28;20476;-83
2021/06/24 05:10:23;;;;;;;14.20;11.02;;;;;;;13.89;93.47;101591.72;5044682;28;20049;-84
2021/06/24 05:12:49;;;;;;;17.50;10.43;;;;;;;13.99;92.78;101596.97;5048199;28;20037;-84
2021/06/24 05:15:15;;;;;;;14.85;11.20;;;;;;;14.11;92.11;101606.44;5048035;28;20045;-89
2021/06/24 05:17:41;;;;;;;15.55;11.70;;;;;;;14.15;92.41;101610.47;5046621;28;20056;-84
2021/06/24 05:20:08;;;;;;;14.90;10.90;;;;;;;13.93;93.39;101608.44;5055232;28;20045;-85
2021/06/24 05:22:35;;;;;;;17.90;11.27;;;;;;;14.01;93.26;101613.81;5044010;28;20052;-84
2021/06/24 05:25:00;;;;;;;19.60;11.57;;;;;;;14.13;92.71;101612.53;5044328;28;20052;-87
2021/06/24 05:27:26;;;;;;;16.65;11.90;;;;;;;14.22;93.10;101613.38;5041891;28;20485;-90
2021/06/24 05:29:51;;;;;;;13.52;11.35;;;;;;;14.26;92.44;101617.41;5042269;28;20059;-83
2021/06/24 05:32:17;;;;;;;15.38;10.93;;;;;;;14.23;92.56;101615.88;5042648;28;20161;-86
2021/06/24 05:34:42;;;;;;;18.55;11.35;;;;;;;14.29;92.54;101617.06;5049876;28;20426;-83
2021/06/24 05:37:08;;;;;;;15.15;11.57;;;;;;;14.28;92.41;101611.84;5024528;28;20124;-84
2021/06/24 05:39:33;;;;;;;18.98;11.55;;;;;;;14.25;91.72;101613.03;5054619;28;20121;-85
2021/06/24 05:41:58;;;;;;;19.88;11.15;;;;;;;14.12;92.82;101613.50;5023346;28;20042;-83
2021/06/24 05:44:25;;;;;;;15.25;11.25;;;;;;;14.12;92.84;101608.09;5023380;28;20141;-83
2021/06/24 05:46:51;;;;;;;14.85;11.07;;;;;;;14.21;92.49;101612.53;5044171;28;20068;-83
2021/06/24 05:49:16;;;;;;;15.95;11.68;;;;;;;14.13;92.62;101604.41;5052087;28;20157;-84
2021/06/24 05:51:42;;;;;;;15.40;11.68;;;;;;;14.17;92.83;101599.53;5039083;28;20041;-83
2021/06/24 05:54:07;;;;;;;15.07;11.48;;;;;;;14.13;92.91;101601.72;5041109;28;20041;-92
2021/06/24 05:56:33;;;;;;;15.57;11.68;;;;;;;14.22;92.15;101602.56;5043410;28;20575;-83
2021/06/24 05:58:58;;;;;;;18.05;12.18;;;;;;;14.32;91.46;101600.53;5042739;28;20075;-85
2021/06/24 06:01:23;;;;;;;15.30;11.75;;;;;;;14.30;91.48;101607.97;5043272;28;20053;-87
2021/06/24 06:03:50;;;;;;;21.30;11.50;;;;;;;14.22;92.28;101600.72;5026360;28;20565;-83
2021/06/24 06:06:16;;;;;;;20.48;12.80;;;;;;;14.16;92.85;101598.69;5042753;28;20044;-84
2021/06/24 06:08:42;;;;;;;16.13;11.95;;;;;;;14.18;92.98;101601.19;5040991;28;20059;-87
2021/06/24 06:11:07;;;;;;;18.83;12.02;;;;;;;14.31;92.20;101595.31;5042508;28;20053;-87
2021/06/24 06:13:33;;;;;;;16.60;11.18;;;;;;;14.32;92.75;101596.97;5041489;28;20045;-83
2021/06/24 06:16:00;;;;;;;16.38;11.82;;;;;;;14.46;91.97;101582.81;5062602;28;20053;-85
2021/06/24 06:18:26;;;;;;;15.57;11.75;;;;;;;14.32;92.23;101592.44;5042496;28;20051;-85
2021/06/24 06:20:53;;;;;;;15.65;11.82;;;;;;;14.44;92.44;101595.63;5044835;28;20435;-89
2021/06/24 06:23:22;;;;;;;17.50;12.30;;;;;;;14.50;91.56;101589.56;5046633;28;20128;-84
2021/06/24 06:25:48;;;;;;;17.67;10.68;;;;;;;14.52;90.87;101584.84;5044977;28;20029;-84
2021/06/24 06:28:15;;;;;;;17.88;11.95;;;;;;;14.48;91.45;101585.34;5045287;28;20120;-84
2021/06/24 06:30:41;;;;;;;15.52;11.45;;;;;;;14.62;91.07;101590.91;5043623;28;20056;-85
2021/06/24 06:33:08;;;;;;;13.52;11.05;;;;;;;14.62;90.23;101590.09;5040892;28;20057;-87
2021/06/24 06:35:34;;;;;;;14.90;11.05;;;;;;;14.69;89.46;101590.22;5041750;28;20045;-83
2021/06/24 06:38:00;;;;;;;14.38;10.75;;;;;;;14.57;89.59;101590.59;5042886;28;20424;-86
2021/06/24 06:40:27;;;;;;;13.15;10.38;;;;;;;14.64;89.49;101591.59;5038704;28;20045;-84
2021/06/24 06:42:52;;;;;;;15.20;10.75;;;;;;;14.62;89.79;101582.81;5043235;28;20403;-89
2021/06/24 06:45:18;;;;;;;13.23;9.02;;;;;;;14.65;88.79;101587.03;5041515;28;20049;-84
2021/06/24 06:47:45;;;;;;;12.70;9.45;;;;;;;14.70;88.26;101587.34;5038867;28;20261;-84
2021/06/24 06:50:11;;;;;;;10.95;9.13;;;;;;;14.82;87.79;101583.28;5036657;28;20045;-84
2021/06/24 06:52:36;;;;;;;12.27;9.13;;;;;;;14.81;87.78;101584.28;5040646;28;20051;-85
2021/06/24 06:55:02;;;;;;;15.30;9.77;;;;;;;15.01;87.79;101583.88;5040421;28;20044;-87
2021/06/24 06:57:27;;;;;;;10.57;9.15;;;;;;;15.12;87.62;101587.06;5044493;28;20250;-86
2021/06/24 06:59:52;;;;;;;13.93;8.95;;;;;;;15.14;86.65;101581.50;5059127;28;20059;-83
2021/06/24 07:02:18;;;;;;;14.27;9.43;;;;;;;15.12;85.62;101576.25;5057246;28;20041;-83
2021/06/24 07:04:43;;;;;;;12.18;8.75;;;;;;;15.06;86.20;101578.81;5054334;28;20091;-85
2021/06/24 07:07:09;;;;;;;12.07;8.32;;;;;;;15.07;85.92;101589.44;5053824;28;20506;-84
2021/06/24 07:09:34;;;;;;;11.68;8.10;;;;;;;15.12;85.46;101584.34;5045972;28;20762;-84
2021/06/24 07:11:59;;;;;;;13.05;8.57;;;;;;;15.22;84.96;101588.69;5044507;28;20132;-84
2021/06/24 07:14:25;;;;;;;12.88;8.65;;;;;;;15.41;84.26;101585.56;5035587;28;20072;-83
2021/06/24 07:16:50;;;;;;;11.55;8.90;;;;;;;15.52;83.56;101584.34;5035834;28;20072;-83
2021/06/24 07:19:15;;;;;;;11.45;8.10;;;;;;;15.63;83.29;101585.81;5044249;28;20389;-86
2021/06/24 07:21:41;;;;;;;10.13;8.43;;;;;;;15.61;83.47;101585.16;5045499;28;22095;-83
2021/06/24 07:24:07;;;;;;;12.55;7.60;;;;;;;15.66;82.57;101585.47;5046522;28;20409;-84
2021/06/24 07:26:33;;;;;;;11.82;7.70;;;;;;;15.69;82.61;101590.53;5041955;28;20048;-84
2021/06/24 07:28:58;;;;;;;11.45;7.35;;;;;;;15.71;81.67;101585.81;5044390;28;20047;-84
2021/06/24 07:31:24;;;;;;;11.00;7.80;;;;;;;15.80;81.85;101584.72;5075842;28;20540;-86
2021/06/24 07:33:49;;;;;;;13.10;7.70;;;;;;;15.82;80.99;101590.78;5045164;28;20053;-83
2021/06/24 07:36:17;;;;;;;8.35;7.18;;;;;;;16.04;81.95;101588.28;5044980;28;20077;-83
2021/06/24 07:38:42;;;;;;;10.30;6.60;;;;;;;16.05;80.92;101592.66;5065326;28;20053;-85
2021/06/24 07:41:07;;;;;;;14.00;7.60;;;;;;;16.28;81.29;101598.06;5049672;28;20524;-87
2021/06/24 07:43:33;;;;;;;9.25;6.57;;;;;;;16.15;79.33;101591.41;5019680;28;20099;-84
2021/06/24 07:45:59;;;;;;;10.68;6.68;;;;;;;16.22;79.11;101586.09;5044067;28;20269;-85
2021/06/24 07:48:25;;;;;;;10.70;6.45;;;;;;;16.27;78.87;101593.69;5069575;28;20493;-84
2021/06/24 07:50:50;;;;;;;8.45;6.05;;;;;;;16.42;78.48;101591.84;5043824;28;20049;-86
2021/06/24 07:53:15;;;;;;;10.30;6.32;;;;;;;16.51;78.27;101590.72;5039952;28;20053;-87
2021/06/24 07:55:41;;;;;;;10.25;5.68;;;;;;;16.60;78.24;101595.06;5042804;28;20053;-84
2021/06/24 07:58:07;;;;;;;8.10;5.57;;;;;;;16.63;76.42;101591.13;5076351;28;20037;-85
2021/06/24 08:00:36;;;;;;;8.35;5.28;;;;;;;16.64;76.48;101592.81;5041799;28;20064;-83
2021/06/24 08:03:04;;;;;;;11.30;5.70;;;;;;;16.54;76.86;101595.78;5042053;28;20049;-85
2021/06/24 08:05:29;;;;;;;12.63;5.72;;;;;;;16.60;76.02;101595.06;5043082;28;20045;-91
2021/06/24 08:07:55;;;;;;;7.18;5.28;;;;;;;16.68;74.84;101597.66;5045354;28;20045;-87
2021/06/24 08:10:21;;;;;;;10.27;5.05;;;;;;;16.61;75.39;101587.78;5046654;28;20090;-84
2021/06/24 08:12:47;;;;;;;8.15;5.70;;;;;;;16.74;75.59;101590.66;5046974;28;20554;-86
2021/06/24 08:15:15;;;;;;;8.23;5.63;;;;;;;16.81;74.79;101586.25;5045315;28;20060;-84
2021/06/24 08:17:42;;;;;;;7.80;6.28;;;;;;;16.87;75.11;101587.34;5047959;28;20064;-85
2021/06/24 08:20:09;;;;;;;7.38;4.85;;;;;;;16.91;74.33;101586.78;5047293;28;20045;-85
2021/06/24 08:22:35;;;;;;;10.88;5.40;;;;;;;16.84;75.00;101590.44;5048627;28;20049;-84
2021/06/24 08:25:01;;;;;;;8.43;4.95;;;;;;;16.97;75.18;101582.47;5047074;28;20057;-86
2021/06/24 08:27:27;;;;;;;7.88;5.57;;;;;;;16.97;74.54;101585.19;5048636;28;20061;-84
2021/06/24 08:29:53;;;;;;;8.63;6.05;;;;;;;17.02;74.25;101592.78;5048006;28;20072;-84
2021/06/24 08:32:18;;;;;;;8.18;5.93;;;;;;;17.05;74.28;101582.41;5045474;28;20073;-84
2021/06/24 08:34:43;;;;;;;7.97;5.38;;;;;;;17.03;73.86;101586.31;5044132;28;20717;-85
2021/06/24 08:37:09;;;;;;;9.27;5.63;;;;;;;16.98;73.73;101581.47;5043522;28;20084;-84
2021/06/24 08:39:35;;;;;;;8.50;6.00;;;;;;;17.03;74.37;101581.75;5043886;28;20136;-84
2021/06/24 08:42:02;;;;;;;10.38;6.28;;;;;;;16.99;74.39;101585.03;5042273;28;20057;-84
2021/06/24 08:44:27;;;;;;;11.20;6.32;;;;;;;17.06;74.44;101588.66;5041561;28;20055;-87
2021/06/24 08:46:56;;;;;;;9.30;6.43;;;;;;;17.16;75.04;101586.50;5045548;28;20551;-92
2021/06/24 08:49:24;;;;;;;8.35;5.78;;;;;;;17.39;75.58;101589.09;5043229;28;20053;-83
2021/06/24 08:51:54;;;;;;;9.68;6.03;;;;;;;17.37;73.47;101583.84;5042371;28;20037;-84
2021/06/24 08:54:20;;;;;;;8.80;5.85;;;;;;;17.44;75.45;101583.94;5050460;28;20716;-84
2021/06/24 08:56:46;;;;;;;10.43;6.90;;;;;;;17.59;75.01;101590.19;5048298;28;20279;-85
2021/06/24 08:59:11;;;;;;;9.20;5.90;;;;;;;17.59;73.88;101583.91;5046606;28;20096;-84
2021/06/24 09:01:57;;;;;;;8.55;6.97;;;;;;;17.61;74.76;101587.28;5044911;28;20044;-84
2021/06/24 09:04:25;;;;;;;12.52;6.68;;;;;;;17.71;74.10;101579.66;5042548;28;20248;-88
2021/06/24 09:06:51;;;;;;;9.75;6.03;;;;;;;17.63;73.79;101579.78;5043154;28;20037;-84
2021/06/24 09:09:27;;;;;;;8.02;6.28;;;;;;;17.54;71.68;101581.75;5043299;28;20391;-87
2021/06/24 09:12:00;;;;;;;8.23;5.72;;;;;;;17.60;72.68;101585.59;5055123;28;20450;-92
2021/06/24 09:14:39;;;;;;;8.23;6.40;;;;;;;17.76;74.11;101590.78;5046113;28;20052;-85
2021/06/24 09:17:05;;;;;;;8.07;6.30;;;;;;;17.90;72.88;101580.09;5043557;28;20064;-84
2021/06/24 09:19:31;;;;;;;8.13;5.97;;;;;;;17.87;71.24;101580.50;5044261;28;20045;-85
2021/06/24 09:22:11;;;;;;;10.57;6.68;;;;;;;17.80;71.88;101581.25;5042339;28;20134;-86
2021/06/24 09:24:41;;;;;;;10.05;6.13;;;;;;;17.71;71.53;101576.09;5043465;28;20545;-86
2021/06/24 09:27:13;;;;;;;9.57;7.05;;;;;;;17.69;71.98;101579.00;5043136;28;20164;-86
2021/06/24 09:29:38;;;;;;;9.73;6.85;;;;;;;17.71;72.81;101576.09;5037447;28;20041;-84
2021/06/24 09:32:04;;;;;;;8.70;6.10;;;;;;;17.93;72.47;101571.56;5046865;28;20052;-84
2021/06/24 09:34:29;;;;;;;7.88;6.45;;;;;;;17.95;72.47;101574.91;5079282;28;20096;-85
2021/06/24 09:37:00;;;;;;;8.73;7.20;;;;;;;18.13;71.76;101579.91;5047810;28;20086;-84
2021/06/24 09:39:32;;;;;;;11.50;7.45;;;;;;;17.81;71.62;101572.09;5038621;28;20144;-91
2021/06/24 09:42:03;;;;;;;8.23;5.85;;;;;;;17.98;73.79;101571.81;5047039;28;20641;-85
2021/06/24 09:44:30;;;;;;;9.95;7.25;;;;;;;18.22;72.40;101576.84;5046673;28;20048;-84
2021/06/24 09:46:56;;;;;;;9.52;7.53;;;;;;;18.30;70.90;101584.03;5045916;28;20536;-84
2021/06/24 09:49:27;;;;;;;10.30;7.35;;;;;;;18.16;70.68;101579.53;5044802;28;20071;-91
2021/06/24 09:51:54;;;;;;;10.38;7.43;;;;;;;18.23;71.13;101573.09;5043876;28;20488;-84
2021/06/24 09:54:28;;;;;;;9.43;6.30;;;;;;;18.46;71.54;101581.00;5043278;28;20049;-87
2021/06/24 09:56:55;;;;;;;9.88;7.07;;;;;;;18.51;71.01;101577.72;5055992;28;20474;-86
2021/06/24 09:59:30;;;;;;;10.93;7.85;;;;;;;18.71;70.21;101566.97;5047500;28;20040;-92
2021/06/24 10:01:56;;;;;;;8.60;7.68;;;;;;;18.77;70.09;101563.50;5060270;28;20145;-84
2021/06/24 10:04:21;;;;;;;12.18;9.25;;;;;;;18.65;69.06;101557.75;5043528;28;20503;-85
2021/06/24 10:06:52;;;;;;;9.23;8.25;;;;;;;18.52;69.89;101559.53;5043220;28;20056;-83
2021/06/24 10:09:18;;;;;;;12.48;8.75;;;;;;;18.40;70.41;101564.66;5044088;28;20391;-84
2021/06/24 10:11:44;;;;;;;10.88;8.93;;;;;;;18.72;70.60;101569.47;5058381;28;20056;-88
2021/06/24 10:14:10;;;;;;;11.40;9.25;;;;;;;18.77;69.14;101559.94;5023175;28;20052;-86
2021/06/24 10:16:36;;;;;;;9.95;8.10;;;;;;;18.86;68.86;101569.59;5024490;28;20037;-86
2021/06/24 10:19:05;;;;;;;15.40;9.50;;;;;;;18.98;69.62;101568.00;5035554;28;20054;-90
2021/06/24 10:21:34;;;;;;;11.82;9.30;;;;;;;19.13;70.09;101568.72;5042096;28;20049;-84
2021/06/24 10:24:12;;;;;;;10.18;9.00;;;;;;;19.33;70.23;101562.50;5041338;28;20198;-89
2021/06/24 10:26:52;;;;;;;12.57;9.43;;;;;;;19.22;68.50;101568.53;5040655;28;20049;-84
2021/06/24 10:29:20;;;;;;;12.55;9.13;;;;;;;19.29;70.61;101561.25;5044304;28;20225;-85
2021/06/24 10:31:48;;;;;;;13.55;10.27;;;;;;;18.79;68.82;101569.56;5043233;28;20115;-92
2021/06/24 10:34:14;;;;;;;11.20;9.13;;;;;;;19.03;68.39;101575.56;5042928;28;20114;-87
2021/06/24 10:37:00;;;;;;;9.57;7.85;;;;;;;19.36;68.89;101570.25;5043706;28;20488;-85
2021/06/24 10:39:34;;;;;;;13.95;9.55;;;;;;;19.14;67.56;101570.38;5043959;28;20495;-87
2021/06/24 10:41:59;;;;;;;11.70;9.10;;;;;;;18.82;68.87;101571.06;5046978;28;20044;-83
2021/06/24 10:44:48;;;;;;;10.40;9.02;;;;;;;19.17;68.35;101574.59;5046465;28;20045;-86
2021/06/24 10:47:26;;;;;;;10.13;9.13;;;;;;;19.13;69.27;101576.88;5044890;28;20139;-82
2021/06/24 10:49:51;;;;;;;12.52;9.20;;;;;;;19.32;68.83;101558.94;5051599;28;20041;-83
2021/06/24 10:52:27;;;;;;;13.15;10.15;;;;;;;18.94;68.90;101564.00;5047134;28;20095;-87
2021/06/24 10:54:55;;;;;;;12.40;10.50;;;;;;;18.98;70.02;101561.72;5046790;28;20063;-86
2021/06/24 10:57:33;;;;;;;12.05;9.90;;;;;;;19.32;71.65;101566.28;5043930;28;20488;-83
2021/06/24 11:00:36;;;;;;;12.20;10.02;;;;;;;19.58;69.15;101563.63;5060552;28;20045;-85
2021/06/24 11:03:04;;;;;;;12.40;9.52;;;;;;;19.68;70.65;101563.28;5040838;28;20249;-84
2021/06/24 11:05:55;;;;;;;13.25;9.73;;;;;;;19.75;67.98;101555.97;5026314;28;20049;-83
2021/06/24 11:08:29;;;;;;;10.60;9.50;;;;;;;19.76;68.40;101556.78;5035787;28;20266;-85
2021/06/24 11:10:58;;;;;;;11.40;9.27;;;;;;;19.75;68.52;101546.97;5052455;28;20048;-85
2021/06/24 11:16:13;;;;;;;10.63;9.15;;;;;;;20.08;68.00;101546.16;5051515;28;20045;-89
2021/06/24 11:18:42;;;;;;;14.18;10.68;;;;;;;20.11;67.98;101545.72;5037612;28;20041;-84